Time;durP1;ratioP1;P1;durP2;ratioP2;P2;SDS_P1;SDS_P2;PMS_P1;PMS_P2;Temp;Humidity;BMP_temperature;BMP_pressure;BME280_temperature;BME280_humidity;BME280_pressure;Samples;Min_cycle;Max_cycle;Signal;HPM_P1;HPM_P2
2023/07/27 00:02:15;;;;;;;7.28;6.18;;;;;;;;;;5009114;28;20029;-65
2023/07/27 00:04:41;;;;;;;8.23;6.37;;;;;;;;;;5008992;28;20502;-66
2023/07/27 00:07:06;;;;;;;6.93;5.93;;;;;;;;;;5009306;28;20285;-65
2023/07/27 00:09:31;;;;;;;7.27;5.90;;;;;;;;;;5008729;28;20081;-64
2023/07/27 00:11:56;;;;;;;7.30;6.03;;;;;;;;;;5007271;28;20049;-64
2023/07/27 00:14:22;;;;;;;6.80;5.77;;;;;;;;;;5009030;28;20320;-65
2023/07/27 00:16:47;;;;;;;7.20;5.30;;;;;;;;;;5009631;28;20340;-66
2023/07/27 00:19:12;;;;;;;5.93;5.30;;;;;;;;;;5008443;28;20351;-65
2023/07/27 00:21:37;;;;;;;6.20;4.82;;;;;;;;;;5009280;28;20049;-66
2023/07/27 00:24:03;;;;;;;4.77;4.17;;;;;;;;;;5008361;28;20510;-65
2023/07/27 00:26:28;;;;;;;5.85;4.07;;;;;;;;;;5006686;28;20473;-66
2023/07/27 00:28:53;;;;;;;5.63;4.03;;;;;;;;;;5006284;28;20034;-66
2023/07/27 00:31:19;;;;;;;4.40;3.65;;;;;;;;;;4989316;28;20285;-65
2023/07/27 00:33:44;;;;;;;5.57;3.40;;;;;;;;;;4986519;28;20117;-64
2023/07/27 00:36:09;;;;;;;4.47;3.57;;;;;;;;;;5007587;28;20281;-65
2023/07/27 00:38:34;;;;;;;4.67;3.30;;;;;;;;;;5006045;28;20034;-65
2023/07/27 00:40:59;;;;;;;4.83;3.30;;;;;;;;;;4989516;28;20125;-64
2023/07/27 00:43:25;;;;;;;4.60;3.50;;;;;;;;;;5004819;28;20060;-65
2023/07/27 00:45:50;;;;;;;4.38;3.17;;;;;;;;;;5006880;28;20289;-66
2023/07/27 00:48:15;;;;;;;3.40;3.00;;;;;;;;;;4988177;28;20042;-66
2023/07/27 00:50:41;;;;;;;4.25;3.15;;;;;;;;;;5006917;28;21131;-66
2023/07/27 00:53:06;;;;;;;4.03;3.20;;;;;;;;;;5007243;28;20045;-67
2023/07/27 00:55:32;;;;;;;5.03;3.03;;;;;;;;;;4988035;28;20042;-65
2023/07/27 00:57:57;;;;;;;6.70;3.00;;;;;;;;;;5006288;28;20053;-64
2023/07/27 01:00:22;;;;;;;3.53;2.65;;;;;;;;;;4987280;28;20756;-65
2023/07/27 01:02:48;;;;;;;4.60;2.77;;;;;;;;;;5006412;28;20050;-65
2023/07/27 01:05:13;;;;;;;4.88;2.70;;;;;;;;;;4976206;28;20141;-66
2023/07/27 01:07:38;;;;;;;5.47;2.73;;;;;;;;;;5006275;28;20611;-67
2023/07/27 01:10:04;;;;;;;5.17;2.47;;;;;;;;;;5005755;28;20339;-65
2023/07/27 01:12:34;;;;;;;3.10;2.38;;;;;;;;;;4989034;28;20276;-65
2023/07/27 01:15:07;;;;;;;3.28;2.05;;;;;;;;;;5005336;28;20080;-65
2023/07/27 01:17:35;;;;;;;3.15;2.20;;;;;;;;;;4986208;28;20519;-65
2023/07/27 01:20:12;;;;;;;3.85;1.88;;;;;;;;;;5005776;28;20129;-65
2023/07/27 01:22:50;;;;;;;3.22;1.90;;;;;;;;;;5005848;28;20067;-67
2023/07/27 01:25:30;;;;;;;2.78;1.92;;;;;;;;;;5005770;28;20510;-66
2023/07/27 01:27:59;;;;;;;2.58;1.45;;;;;;;;;;5005475;28;20455;-64
2023/07/27 01:30:27;;;;;;;2.70;1.42;;;;;;;;;;5006538;28;20026;-65
2023/07/27 01:32:54;;;;;;;2.60;1.63;;;;;;;;;;5003696;28;20038;-65
2023/07/27 01:35:19;;;;;;;3.55;1.52;;;;;;;;;;5005322;28;20068;-67
2023/07/27 01:37:44;;;;;;;3.55;1.58;;;;;;;;;;4984994;28;20050;-63
2023/07/27 01:40:09;;;;;;;2.08;1.40;;;;;;;;;;4987384;28;20049;-64
2023/07/27 01:42:35;;;;;;;2.40;1.50;;;;;;;;;;5006004;28;20095;-65
2023/07/27 01:45:00;;;;;;;3.10;1.50;;;;;;;;;;4997628;28;20718;-66
2023/07/27 01:47:25;;;;;;;2.80;1.53;;;;;;;;;;5005598;28;20395;-64
2023/07/27 01:49:50;;;;;;;2.10;1.40;;;;;;;;;;4989714;28;20308;-66
2023/07/27 01:52:16;;;;;;;2.30;1.37;;;;;;;;;;5006034;28;20292;-66
2023/07/27 01:54:41;;;;;;;3.00;1.50;;;;;;;;;;5004186;28;20030;-66
2023/07/27 01:57:06;;;;;;;1.80;1.37;;;;;;;;;;5005988;28;20827;-65
2023/07/27 01:59:32;;;;;;;2.55;1.50;;;;;;;;;;5004406;28;20463;-66
2023/07/27 02:01:58;;;;;;;2.30;1.33;;;;;;;;;;4987378;28;20506;-65
2023/07/27 02:04:23;;;;;;;3.33;1.90;;;;;;;;;;5005234;28;20427;-66
2023/07/27 02:06:51;;;;;;;1.70;1.57;;;;;;;;;;5003710;28;20585;-66
2023/07/27 02:09:16;;;;;;;2.55;1.70;;;;;;;;;;4986987;28;20300;-66
2023/07/27 02:11:41;;;;;;;2.87;2.00;;;;;;;;;;4987786;28;20034;-66
2023/07/27 02:14:18;;;;;;;2.65;2.03;;;;;;;;;;4984603;28;20325;-66
2023/07/27 02:17:04;;;;;;;3.78;2.33;;;;;;;;;;5005007;28;20137;-65
2023/07/27 02:19:29;;;;;;;2.70;2.17;;;;;;;;;;5003343;28;20778;-63
2023/07/27 02:21:55;;;;;;;3.13;2.28;;;;;;;;;;5005227;28;20037;-63
2023/07/27 02:24:20;;;;;;;2.95;2.58;;;;;;;;;;5002480;28;20089;-65
2023/07/27 02:26:45;;;;;;;3.60;2.70;;;;;;;;;;4995559;28;20054;-66
2023/07/27 02:29:10;;;;;;;4.70;3.40;;;;;;;;;;5005059;28;20037;-65
2023/07/27 02:31:36;;;;;;;3.80;3.40;;;;;;;;;;4987600;28;20359;-63
2023/07/27 02:34:01;;;;;;;4.50;3.57;;;;;;;;;;5005235;28;20502;-66
2023/07/27 02:36:26;;;;;;;3.87;3.50;;;;;;;;;;5004949;28;20434;-67
2023/07/27 02:38:51;;;;;;;5.60;3.73;;;;;;;;;;5004587;28;20301;-65
2023/07/27 02:41:16;;;;;;;3.97;3.57;;;;;;;;;;5002174;28;20042;-66
2023/07/27 02:43:42;;;;;;;4.17;3.77;;;;;;;;;;5005152;28;20065;-66
2023/07/27 02:46:08;;;;;;;5.03;4.30;;;;;;;;;;5004721;28;20034;-65
2023/07/27 02:48:33;;;;;;;4.40;4.00;;;;;;;;;;5005231;28;20041;-66
2023/07/27 02:50:58;;;;;;;4.40;4.00;;;;;;;;;;4998637;28;20034;-64
2023/07/27 02:53:24;;;;;;;4.80;4.30;;;;;;;;;;5003860;28;20132;-64
2023/07/27 02:55:59;;;;;;;4.33;3.73;;;;;;;;;;5003603;28;20046;-64
2023/07/27 02:58:24;;;;;;;4.53;4.13;;;;;;;;;;5002854;28;20319;-64
2023/07/27 03:00:53;;;;;;;4.40;3.75;;;;;;;;;;4987270;28;20033;-65
2023/07/27 03:03:18;;;;;;;5.50;4.20;;;;;;;;;;5003854;28;20147;-63
2023/07/27 03:05:43;;;;;;;5.23;4.10;;;;;;;;;;4986334;28;20117;-67
2023/07/27 03:08:08;;;;;;;4.55;3.95;;;;;;;;;;5003749;28;20285;-63
2023/07/27 03:10:34;;;;;;;4.60;4.10;;;;;;;;;;5004766;28;20030;-66
2023/07/27 03:12:59;;;;;;;4.75;4.25;;;;;;;;;;5003680;28;20769;-65
2023/07/27 03:15:25;;;;;;;4.70;4.30;;;;;;;;;;5002051;28;20036;-64
2023/07/27 03:17:50;;;;;;;5.00;3.93;;;;;;;;;;5004571;28;20049;-64
2023/07/27 03:20:15;;;;;;;4.90;4.50;;;;;;;;;;5004615;28;20273;-65
2023/07/27 03:22:40;;;;;;;4.80;4.30;;;;;;;;;;5004813;28;20048;-65
2023/07/27 03:25:06;;;;;;;4.50;4.10;;;;;;;;;;4986649;28;20044;-66
2023/07/27 03:27:31;;;;;;;4.47;3.78;;;;;;;;;;5008355;28;20072;-66
2023/07/27 03:29:56;;;;;;;4.27;3.87;;;;;;;;;;5006795;28;20061;-68
2023/07/27 03:32:21;;;;;;;4.47;4.07;;;;;;;;;;5004322;28;20276;-66
2023/07/27 03:34:46;;;;;;;4.23;3.80;;;;;;;;;;5006529;28;20296;-66
2023/07/27 03:37:12;;;;;;;4.40;3.90;;;;;;;;;;5005726;28;20315;-62
2023/07/27 03:39:37;;;;;;;4.33;3.93;;;;;;;;;;5006097;28;20891;-66
2023/07/27 03:42:02;;;;;;;4.33;3.93;;;;;;;;;;5006891;28;20280;-65
2023/07/27 03:44:27;;;;;;;4.05;3.70;;;;;;;;;;5004075;28;20111;-67
2023/07/27 03:46:53;;;;;;;4.00;3.60;;;;;;;;;;5003806;28;20041;-65
2023/07/27 03:49:18;;;;;;;4.63;3.65;;;;;;;;;;5001389;28;20287;-66
2023/07/27 03:51:43;;;;;;;4.00;3.70;;;;;;;;;;5003477;28;20112;-66
2023/07/27 03:54:08;;;;;;;3.83;3.53;;;;;;;;;;5003132;28;20042;-64
2023/07/27 03:56:34;;;;;;;5.87;3.50;;;;;;;;;;5003986;28;20054;-66
2023/07/27 03:58:59;;;;;;;4.43;3.30;;;;;;;;;;5003188;28;20304;-64
2023/07/27 04:01:24;;;;;;;3.90;3.60;;;;;;;;;;5003887;28;20322;-65
2023/07/27 04:03:49;;;;;;;4.00;3.40;;;;;;;;;;4996082;28;20046;-63
2023/07/27 04:06:14;;;;;;;4.90;3.63;;;;;;;;;;5002225;28;20038;-66
2023/07/27 04:08:40;;;;;;;3.73;3.30;;;;;;;;;;5003941;28;20725;-64
2023/07/27 04:11:05;;;;;;;4.00;3.20;;;;;;;;;;5003941;28;20033;-66
2023/07/27 04:13:30;;;;;;;4.00;3.23;;;;;;;;;;5001358;28;20331;-65
2023/07/27 04:15:55;;;;;;;3.27;2.87;;;;;;;;;;4998457;28;20362;-71
2023/07/27 04:18:21;;;;;;;4.17;2.97;;;;;;;;;;4999220;28;20808;-68
2023/07/27 04:20:46;;;;;;;3.10;2.80;;;;;;;;;;4997074;28;20499;-67
2023/07/27 04:23:11;;;;;;;3.13;2.70;;;;;;;;;;4998213;28;20040;-69
2023/07/27 04:25:36;;;;;;;4.43;2.33;;;;;;;;;;4980999;28;20042;-67
2023/07/27 04:28:02;;;;;;;2.37;2.10;;;;;;;;;;4999414;28;20053;-66
2023/07/27 04:30:28;;;;;;;2.63;1.95;;;;;;;;;;5000430;28;20038;-67
2023/07/27 04:32:53;;;;;;;2.10;1.90;;;;;;;;;;5002323;28;20989;-67
2023/07/27 04:35:18;;;;;;;4.47;1.77;;;;;;;;;;4982160;28;20038;-70
2023/07/27 04:37:43;;;;;;;1.93;1.63;;;;;;;;;;4999367;28;20451;-66
2023/07/27 04:40:10;;;;;;;2.37;1.60;;;;;;;;;;5000906;28;20297;-65
2023/07/27 04:42:35;;;;;;;2.22;1.27;;;;;;;;;;4999746;28;20301;-67
2023/07/27 04:45:00;;;;;;;3.80;1.73;;;;;;;;;;5001491;28;20097;-68
2023/07/27 04:47:25;;;;;;;2.47;1.53;;;;;;;;;;5000768;28;20288;-68
2023/07/27 04:49:51;;;;;;;1.63;1.53;;;;;;;;;;5002830;28;20280;-67
2023/07/27 04:52:16;;;;;;;4.53;1.50;;;;;;;;;;5000595;28;20388;-65
2023/07/27 04:54:41;;;;;;;2.07;1.67;;;;;;;;;;4983536;28;20049;-67
2023/07/27 04:57:06;;;;;;;3.57;1.70;;;;;;;;;;4979740;28;20048;-70
2023/07/27 04:59:32;;;;;;;2.33;1.70;;;;;;;;;;5001161;28;20848;-69
2023/07/27 05:01:57;;;;;;;3.17;1.45;;;;;;;;;;4979869;28;20538;-67
2023/07/27 05:04:22;;;;;;;2.50;1.50;;;;;;;;;;5000696;28;20124;-69
2023/07/27 05:06:48;;;;;;;2.20;1.47;;;;;;;;;;4981878;28;20879;-66
2023/07/27 05:09:13;;;;;;;1.98;1.38;;;;;;;;;;5001292;28;20503;-65
2023/07/27 05:11:38;;;;;;;1.60;1.50;;;;;;;;;;5001416;28;20425;-65
2023/07/27 05:14:03;;;;;;;1.83;1.50;;;;;;;;;;5002115;28;20442;-65
2023/07/27 05:16:29;;;;;;;2.13;1.40;;;;;;;;;;5002091;28;20332;-68
2023/07/27 05:18:57;;;;;;;2.03;1.50;;;;;;;;;;5001400;28;20296;-67
2023/07/27 05:21:22;;;;;;;2.38;1.67;;;;;;;;;;5001608;28;20502;-70
2023/07/27 05:23:48;;;;;;;2.40;1.80;;;;;;;;;;5001278;28;20045;-65
2023/07/27 05:26:13;;;;;;;2.35;1.75;;;;;;;;;;4976053;28;20030;-68
2023/07/27 05:28:38;;;;;;;6.72;1.75;;;;;;;;;;4982614;28;20057;-69
2023/07/27 05:31:03;;;;;;;2.67;1.60;;;;;;;;;;5000972;28;20132;-68
2023/07/27 05:33:29;;;;;;;2.15;1.95;;;;;;;;;;5001287;28;20424;-68
2023/07/27 05:35:54;;;;;;;2.20;1.87;;;;;;;;;;4988770;28;20046;-64
2023/07/27 05:38:19;;;;;;;2.30;1.70;;;;;;;;;;5004811;28;20816;-68
2023/07/27 05:40:44;;;;;;;2.87;1.73;;;;;;;;;;4987367;28;20809;-67
2023/07/27 05:43:10;;;;;;;5.83;1.87;;;;;;;;;;5003547;28;20288;-65
2023/07/27 05:45:38;;;;;;;3.97;1.80;;;;;;;;;;5002569;28;20316;-66
2023/07/27 05:48:04;;;;;;;3.35;1.90;;;;;;;;;;5005690;28;20304;-69
2023/07/27 05:50:29;;;;;;;3.30;1.77;;;;;;;;;;5007465;28;20782;-68
2023/07/27 05:52:55;;;;;;;3.43;1.83;;;;;;;;;;5006564;28;20503;-66
2023/07/27 05:55:20;;;;;;;1.90;1.70;;;;;;;;;;4987572;28;20364;-69
2023/07/27 05:57:45;;;;;;;3.05;1.73;;;;;;;;;;5005239;28;20108;-68
2023/07/27 06:00:11;;;;;;;4.80;1.50;;;;;;;;;;5001582;28;20075;-68
2023/07/27 06:02:36;;;;;;;3.25;1.80;;;;;;;;;;4998354;28;21103;-67
2023/07/27 06:05:01;;;;;;;3.63;1.70;;;;;;;;;;4998174;28;20072;-68
2023/07/27 06:07:27;;;;;;;3.17;1.67;;;;;;;;;;4996284;28;20288;-70
2023/07/27 06:09:52;;;;;;;2.75;1.90;;;;;;;;;;4998430;28;20046;-64
2023/07/27 06:12:18;;;;;;;2.85;1.67;;;;;;;;;;4997906;28;20038;-69
2023/07/27 06:14:44;;;;;;;3.13;1.92;;;;;;;;;;4996968;28;20506;-68
2023/07/27 06:17:09;;;;;;;1.85;1.42;;;;;;;;;;4997104;28;20079;-65
2023/07/27 06:19:34;;;;;;;2.57;2.00;;;;;;;;;;4960835;28;20504;-70
2023/07/27 06:22:00;;;;;;;2.40;1.45;;;;;;;;;;4995437;28;20296;-66
2023/07/27 06:24:25;;;;;;;3.03;1.40;;;;;;;;;;4997635;28;20037;-69
2023/07/27 06:26:50;;;;;;;2.67;1.47;;;;;;;;;;4995723;28;20103;-66
2023/07/27 06:29:16;;;;;;;2.40;1.58;;;;;;;;;;4996905;28;20428;-68
2023/07/27 06:31:41;;;;;;;3.55;1.50;;;;;;;;;;4998181;28;20630;-69
2023/07/27 06:34:06;;;;;;;5.30;1.90;;;;;;;;;;4997603;28;20026;-67
2023/07/27 06:36:32;;;;;;;5.00;1.77;;;;;;;;;;4998891;28;20056;-67
2023/07/27 06:38:57;;;;;;;10.83;2.20;;;;;;;;;;4997986;28;20284;-66
2023/07/27 06:41:25;;;;;;;5.83;1.50;;;;;;;;;;4998431;28;20297;-70
2023/07/27 06:43:50;;;;;;;3.55;1.40;;;;;;;;;;4977341;28;20300;-67
2023/07/27 06:46:16;;;;;;;4.35;1.38;;;;;;;;;;4997643;28;20030;-66
2023/07/27 06:48:41;;;;;;;2.15;1.25;;;;;;;;;;4997141;28;20037;-68
2023/07/27 06:51:06;;;;;;;1.87;1.10;;;;;;;;;;4976156;28;20584;-66
2023/07/27 06:53:32;;;;;;;3.75;1.13;;;;;;;;;;4995848;28;20872;-64
2023/07/27 06:55:57;;;;;;;1.65;1.00;;;;;;;;;;4995970;28;20117;-64
2023/07/27 06:58:22;;;;;;;1.83;1.10;;;;;;;;;;4995977;28;20135;-66
2023/07/27 07:00:48;;;;;;;1.52;0.95;;;;;;;;;;4996279;28;20092;-69
2023/07/27 07:03:13;;;;;;;1.55;1.00;;;;;;;;;;4996090;28;20498;-68
2023/07/27 07:05:38;;;;;;;2.43;1.07;;;;;;;;;;4996857;28;20025;-71
2023/07/27 07:08:03;;;;;;;1.70;1.00;;;;;;;;;;4996000;28;20858;-64
2023/07/27 07:10:29;;;;;;;2.05;1.00;;;;;;;;;;4996026;28;20418;-67
2023/07/27 07:12:54;;;;;;;2.33;1.05;;;;;;;;;;4976954;28;20053;-68
2023/07/27 07:15:19;;;;;;;2.50;1.10;;;;;;;;;;4978044;28;20029;-67
2023/07/27 07:17:44;;;;;;;2.70;1.00;;;;;;;;;;4975869;28;20733;-65
2023/07/27 07:20:10;;;;;;;2.25;1.27;;;;;;;;;;4994813;28;20335;-66
2023/07/27 07:22:36;;;;;;;2.47;1.50;;;;;;;;;;4995623;28;20021;-68
2023/07/27 07:25:01;;;;;;;2.63;1.20;;;;;;;;;;4980331;28;20018;-67
2023/07/27 07:27:26;;;;;;;3.22;1.45;;;;;;;;;;5000584;28;20029;-65
2023/07/27 07:29:52;;;;;;;4.50;1.20;;;;;;;;;;5001906;28;20044;-70
2023/07/27 07:32:17;;;;;;;1.70;1.00;;;;;;;;;;5000855;28;20285;-67
2023/07/27 07:34:42;;;;;;;1.47;1.13;;;;;;;;;;5002497;28;20490;-67
2023/07/27 07:37:07;;;;;;;2.83;1.10;;;;;;;;;;5002790;28;20308;-70
2023/07/27 07:39:33;;;;;;;2.58;1.00;;;;;;;;;;4980862;28;20287;-69
2023/07/27 07:42:00;;;;;;;1.87;1.13;;;;;;;;;;5002340;28;20053;-65
2023/07/27 07:44:25;;;;;;;3.13;1.00;;;;;;;;;;4994214;28;20025;-67
2023/07/27 07:46:50;;;;;;;3.00;1.23;;;;;;;;;;4978451;28;20562;-67
2023/07/27 07:49:15;;;;;;;2.17;0.88;;;;;;;;;;5001054;28;20506;-68
2023/07/27 07:51:41;;;;;;;2.40;1.35;;;;;;;;;;5001971;28;20101;-67
2023/07/27 07:54:08;;;;;;;3.58;1.15;;;;;;;;;;5001931;28;20018;-65
2023/07/27 07:56:33;;;;;;;2.88;1.13;;;;;;;;;;4982169;28;20597;-69
2023/07/27 07:58:59;;;;;;;3.17;1.10;;;;;;;;;;4979869;28;20107;-68
2023/07/27 08:01:24;;;;;;;2.47;1.20;;;;;;;;;;5001993;28;20263;-64
2023/07/27 08:03:49;;;;;;;2.45;1.13;;;;;;;;;;5002110;28;20276;-69
2023/07/27 08:06:15;;;;;;;4.35;1.40;;;;;;;;;;4983267;28;20018;-68
2023/07/27 08:08:40;;;;;;;1.83;1.13;;;;;;;;;;4999892;28;20026;-67
2023/07/27 08:11:05;;;;;;;3.07;1.40;;;;;;;;;;5001975;28;20892;-66
2023/07/27 08:13:30;;;;;;;3.63;1.10;;;;;;;;;;5003069;28;20343;-71
2023/07/27 08:15:56;;;;;;;12.57;1.55;;;;;;;;;;5003062;28;20033;-70
2023/07/27 08:18:21;;;;;;;7.13;1.52;;;;;;;;;;4986586;28;20041;-69
2023/07/27 08:21:00;;;;;;;9.02;1.52;;;;;;;;;;5006242;28;20022;-66
2023/07/27 08:23:25;;;;;;;10.10;1.75;;;;;;;;;;4988360;28;20463;-67
2023/07/27 08:25:51;;;;;;;5.07;1.70;;;;;;;;;;5005681;28;20136;-69
2023/07/27 08:28:16;;;;;;;5.18;1.55;;;;;;;;;;5006369;28;20117;-67
2023/07/27 08:30:41;;;;;;;6.63;1.40;;;;;;;;;;4980620;28;20048;-67
2023/07/27 08:33:08;;;;;;;6.65;1.80;;;;;;;;;;4986597;28;20176;-67
2023/07/27 08:35:33;;;;;;;5.60;1.67;;;;;;;;;;5004260;28;20042;-69
2023/07/27 08:37:58;;;;;;;6.77;1.57;;;;;;;;;;5005632;28;20061;-66
2023/07/27 08:40:24;;;;;;;5.90;1.47;;;;;;;;;;5003852;28;20348;-69
2023/07/27 08:42:49;;;;;;;4.18;1.55;;;;;;;;;;5006142;28;20315;-70
2023/07/27 08:45:14;;;;;;;8.13;1.33;;;;;;;;;;4988172;28;20042;-70
2023/07/27 08:47:39;;;;;;;3.97;1.70;;;;;;;;;;4987835;28;20296;-68
2023/07/27 08:50:05;;;;;;;5.13;1.37;;;;;;;;;;4986434;28;20855;-70
2023/07/27 08:52:31;;;;;;;5.15;1.45;;;;;;;;;;4990270;28;22285;-70
2023/07/27 08:54:56;;;;;;;3.28;1.52;;;;;;;;;;4987120;28;20152;-68
2023/07/27 08:57:21;;;;;;;4.23;1.20;;;;;;;;;;4998535;28;20053;-70
2023/07/27 08:59:46;;;;;;;5.27;1.20;;;;;;;;;;5001695;28;20283;-68
2023/07/27 09:02:12;;;;;;;5.10;1.23;;;;;;;;;;5002012;28;20461;-70
2023/07/27 09:04:37;;;;;;;7.20;1.60;;;;;;;;;;4984845;28;20277;-68
2023/07/27 09:07:08;;;;;;;2.50;1.10;;;;;;;;;;5000920;28;20841;-66
2023/07/27 09:09:33;;;;;;;3.85;1.38;;;;;;;;;;5003304;28;20467;-66
2023/07/27 09:11:59;;;;;;;3.33;1.50;;;;;;;;;;5004945;28;20120;-66
2023/07/27 09:14:24;;;;;;;8.87;1.50;;;;;;;;;;4983627;28;20558;-65
2023/07/27 09:16:49;;;;;;;3.90;1.38;;;;;;;;;;4981318;28;20384;-65
2023/07/27 09:19:18;;;;;;;5.75;1.42;;;;;;;;;;5003526;28;20037;-65
2023/07/27 09:21:44;;;;;;;3.63;1.45;;;;;;;;;;5003818;28;20033;-65
2023/07/27 09:24:10;;;;;;;2.58;1.27;;;;;;;;;;4984104;28;20046;-66
2023/07/27 09:26:41;;;;;;;5.55;1.30;;;;;;;;;;4981203;28;20430;-66
2023/07/27 09:29:06;;;;;;;2.95;1.35;;;;;;;;;;4960201;28;20169;-64
2023/07/27 09:31:33;;;;;;;3.80;1.17;;;;;;;;;;4998183;28;20161;-67
2023/07/27 09:33:58;;;;;;;5.28;1.55;;;;;;;;;;4997788;28;20068;-65
2023/07/27 09:36:24;;;;;;;4.37;1.50;;;;;;;;;;4979991;28;20042;-65
2023/07/27 09:38:49;;;;;;;5.90;1.50;;;;;;;;;;4994749;28;20289;-65
2023/07/27 09:41:15;;;;;;;3.47;1.43;;;;;;;;;;4978874;28;20038;-66
2023/07/27 09:43:41;;;;;;;4.38;1.52;;;;;;;;;;4959127;28;20099;-68
2023/07/27 09:46:06;;;;;;;5.55;1.40;;;;;;;;;;4979137;28;20113;-64
2023/07/27 09:48:31;;;;;;;4.40;1.40;;;;;;;;;;4998220;28;20656;-65
2023/07/27 09:50:59;;;;;;;5.80;1.55;;;;;;;;;;4979588;28;20413;-65
2023/07/27 09:53:26;;;;;;;3.80;1.33;;;;;;;;;;4979990;28;20094;-66
2023/07/27 09:55:51;;;;;;;3.90;1.27;;;;;;;;;;4960542;28;20156;-67
2023/07/27 09:58:16;;;;;;;3.67;1.52;;;;;;;;;;4997581;28;20038;-67
2023/07/27 10:00:42;;;;;;;5.00;1.30;;;;;;;;;;4995601;28;20073;-64
2023/07/27 10:03:07;;;;;;;4.93;1.37;;;;;;;;;;4996634;28;20508;-66
2023/07/27 10:05:32;;;;;;;4.93;1.43;;;;;;;;;;4997645;28;20603;-66
2023/07/27 10:07:58;;;;;;;3.53;1.42;;;;;;;;;;4979332;28;20292;-67
2023/07/27 10:10:25;;;;;;;3.38;1.42;;;;;;;;;;4997577;28;20034;-66
2023/07/27 10:12:50;;;;;;;3.88;1.50;;;;;;;;;;4997335;28;20042;-67
2023/07/27 10:15:19;;;;;;;4.30;1.50;;;;;;;;;;4980133;28;20480;-66
2023/07/27 10:17:45;;;;;;;3.00;1.33;;;;;;;;;;4977114;28;20646;-64
2023/07/27 10:20:19;;;;;;;3.13;1.27;;;;;;;;;;4996966;28;20470;-66
2023/07/27 10:22:44;;;;;;;3.63;1.23;;;;;;;;;;4973998;28;20038;-66
2023/07/27 10:25:09;;;;;;;3.20;1.30;;;;;;;;;;4983557;28;20034;-65
2023/07/27 10:27:52;;;;;;;2.43;1.33;;;;;;;;;;5001700;28;20085;-64
2023/07/27 10:30:18;;;;;;;3.40;1.40;;;;;;;;;;5000829;28;20042;-66
2023/07/27 10:33:04;;;;;;;3.00;1.42;;;;;;;;;;5002127;28;20042;-65
2023/07/27 10:35:30;;;;;;;2.83;1.40;;;;;;;;;;5001530;28;20037;-67
2023/07/27 10:37:55;;;;;;;4.13;1.50;;;;;;;;;;4999519;28;20053;-65
2023/07/27 10:40:24;;;;;;;6.23;1.33;;;;;;;;;;5000690;28;20044;-66
2023/07/27 10:42:56;;;;;;;3.23;1.20;;;;;;;;;;4980731;28;20300;-65
2023/07/27 10:45:25;;;;;;;3.35;1.20;;;;;;;;;;4980670;28;20304;-65
2023/07/27 10:47:50;;;;;;;3.92;1.33;;;;;;;;;;5000911;28;20120;-64
2023/07/27 10:50:17;;;;;;;4.53;1.30;;;;;;;;;;4998431;28;20128;-64
2023/07/27 10:52:43;;;;;;;2.85;1.45;;;;;;;;;;4979649;28;20038;-65
2023/07/27 10:55:08;;;;;;;3.67;1.60;;;;;;;;;;4998916;28;20609;-64
2023/07/27 10:57:33;;;;;;;6.13;1.20;;;;;;;;;;4982336;28;20323;-64
2023/07/27 10:59:59;;;;;;;2.80;1.25;;;;;;;;;;4998358;28;20042;-64
2023/07/27 11:02:28;;;;;;;2.85;1.40;;;;;;;;;;4999202;28;20128;-65
2023/07/27 11:04:57;;;;;;;3.92;1.30;;;;;;;;;;4999368;28;20029;-65
2023/07/27 11:07:26;;;;;;;2.70;1.27;;;;;;;;;;4998338;28;20030;-65
2023/07/27 11:09:51;;;;;;;3.33;1.50;;;;;;;;;;4998988;28;20018;-65
2023/07/27 11:12:17;;;;;;;2.97;1.30;;;;;;;;;;4976801;28;20032;-65
2023/07/27 11:14:42;;;;;;;2.67;1.17;;;;;;;;;;4999286;28;20025;-65
2023/07/27 11:17:07;;;;;;;5.27;1.17;;;;;;;;;;4997723;28;20316;-66
2023/07/27 11:19:32;;;;;;;4.43;1.53;;;;;;;;;;4997458;28;20363;-67
2023/07/27 11:21:58;;;;;;;2.77;1.50;;;;;;;;;;4998554;28;20264;-68
2023/07/27 11:24:23;;;;;;;5.75;1.50;;;;;;;;;;5002376;28;20862;-73
2023/07/27 11:26:48;;;;;;;3.00;1.40;;;;;;;;;;5000501;28;20045;-71
2023/07/27 11:29:13;;;;;;;3.57;1.23;;;;;;;;;;4999295;28;20025;-69
2023/07/27 11:31:39;;;;;;;3.63;1.43;;;;;;;;;;4964953;28;20808;-71
2023/07/27 11:34:04;;;;;;;3.05;1.40;;;;;;;;;;4998452;28;20279;-71
2023/07/27 11:36:30;;;;;;;4.60;1.50;;;;;;;;;;4999950;28;20040;-73
2023/07/27 11:38:56;;;;;;;4.95;1.80;;;;;;;;;;4997469;28;20137;-65
2023/07/27 11:41:22;;;;;;;4.28;1.50;;;;;;;;;;4998153;28;20115;-73
2023/07/27 11:43:50;;;;;;;6.13;1.63;;;;;;;;;;4999206;28;20755;-70
2023/07/27 11:46:15;;;;;;;4.85;1.67;;;;;;;;;;4979509;28;20403;-66
2023/07/27 11:48:40;;;;;;;5.23;1.47;;;;;;;;;;5000217;28;20026;-65
2023/07/27 11:51:06;;;;;;;5.57;2.15;;;;;;;;;;4999498;28;20307;-70
2023/07/27 11:53:31;;;;;;;7.65;2.15;;;;;;;;;;4966936;28;20021;-69
2023/07/27 11:55:56;;;;;;;3.70;1.60;;;;;;;;;;4983757;28;20050;-70
2023/07/27 11:58:26;;;;;;;3.83;1.42;;;;;;;;;;5002104;28;20802;-70
2023/07/27 12:00:51;;;;;;;4.47;1.52;;;;;;;;;;5001983;28;20061;-70
2023/07/27 12:03:17;;;;;;;4.35;1.20;;;;;;;;;;4983943;28;20651;-71
2023/07/27 12:05:42;;;;;;;3.15;1.33;;;;;;;;;;4983962;28;20403;-71
2023/07/27 12:08:08;;;;;;;2.55;1.52;;;;;;;;;;5008747;28;20140;-71
2023/07/27 12:10:33;;;;;;;3.00;1.40;;;;;;;;;;5008207;28;20060;-69
2023/07/27 12:13:01;;;;;;;2.90;1.27;;;;;;;;;;5008936;28;20041;-66
2023/07/27 12:15:29;;;;;;;4.60;1.60;;;;;;;;;;4990822;28;20273;-71
2023/07/27 12:17:55;;;;;;;2.70;1.48;;;;;;;;;;5008823;28;20522;-67
2023/07/27 12:20:21;;;;;;;3.78;1.33;;;;;;;;;;5010597;28;20042;-67
2023/07/27 12:22:46;;;;;;;4.05;1.73;;;;;;;;;;5008300;28;20130;-67
2023/07/27 12:25:11;;;;;;;3.77;1.30;;;;;;;;;;4990861;28;20498;-69
2023/07/27 12:27:36;;;;;;;2.83;1.30;;;;;;;;;;5008201;28;20303;-66
2023/07/27 12:30:02;;;;;;;2.67;1.30;;;;;;;;;;5013254;28;20044;-66
2023/07/27 12:32:27;;;;;;;4.07;1.33;;;;;;;;;;5007496;28;20277;-67
2023/07/27 12:34:52;;;;;;;3.47;1.40;;;;;;;;;;5009445;28;20096;-67
2023/07/27 12:37:18;;;;;;;2.00;1.20;;;;;;;;;;5009655;28;20053;-69
2023/07/27 12:39:43;;;;;;;5.63;1.27;;;;;;;;;;5008234;28;20357;-68
2023/07/27 12:42:08;;;;;;;1.73;1.00;;;;;;;;;;5009043;28;20117;-69
2023/07/27 12:44:33;;;;;;;2.80;1.20;;;;;;;;;;5008551;28;20077;-66
2023/07/27 12:46:58;;;;;;;4.33;1.40;;;;;;;;;;5007378;28;20081;-66
2023/07/27 12:49:24;;;;;;;3.37;1.20;;;;;;;;;;5008631;28;20037;-62
2023/07/27 12:51:49;;;;;;;2.63;1.50;;;;;;;;;;5004940;28;20049;-63
2023/07/27 12:54:14;;;;;;;2.00;1.07;;;;;;;;;;5004559;28;20815;-67
2023/07/27 12:56:40;;;;;;;3.50;1.27;;;;;;;;;;5008312;28;20273;-68
2023/07/27 12:59:05;;;;;;;3.90;1.40;;;;;;;;;;5008233;28;20280;-64
2023/07/27 13:01:30;;;;;;;2.07;1.30;;;;;;;;;;5007785;28;20022;-68
2023/07/27 13:03:55;;;;;;;3.53;1.33;;;;;;;;;;5007719;28;20044;-68
2023/07/27 13:06:21;;;;;;;2.33;1.20;;;;;;;;;;5007565;28;20065;-67
2023/07/27 13:08:46;;;;;;;1.93;1.10;;;;;;;;;;5007389;28;20503;-68
2023/07/27 13:11:11;;;;;;;1.73;1.13;;;;;;;;;;5007820;28;20288;-68
2023/07/27 13:13:36;;;;;;;2.33;1.30;;;;;;;;;;5007609;28;20112;-65
2023/07/27 13:16:01;;;;;;;3.50;1.30;;;;;;;;;;5007924;28;20042;-67
2023/07/27 13:18:27;;;;;;;3.13;1.50;;;;;;;;;;5007374;28;20054;-67
2023/07/27 13:20:52;;;;;;;3.27;1.23;;;;;;;;;;5007961;28;20403;-69
2023/07/27 13:23:17;;;;;;;3.17;1.33;;;;;;;;;;5007210;28;20099;-68
2023/07/27 13:25:42;;;;;;;2.73;1.17;;;;;;;;;;5007743;28;20318;-70
2023/07/27 13:28:08;;;;;;;6.50;1.65;;;;;;;;;;5006373;28;20359;-68
2023/07/27 13:30:33;;;;;;;3.17;1.50;;;;;;;;;;5004053;28;20052;-68
2023/07/27 13:32:58;;;;;;;3.87;1.37;;;;;;;;;;5006032;28;20364;-65
2023/07/27 13:35:23;;;;;;;3.50;1.50;;;;;;;;;;5006603;28;20300;-64
2023/07/27 13:37:49;;;;;;;7.57;1.73;;;;;;;;;;5004918;28;20816;-64
2023/07/27 13:40:14;;;;;;;5.87;1.47;;;;;;;;;;5007176;28;20452;-68
2023/07/27 13:42:39;;;;;;;9.75;2.00;;;;;;;;;;5007422;28;20281;-65
2023/07/27 13:45:05;;;;;;;9.48;1.92;;;;;;;;;;5006840;28;20044;-67
2023/07/27 13:47:30;;;;;;;9.48;1.95;;;;;;;;;;5006397;28;20033;-65
2023/07/27 13:49:55;;;;;;;14.07;1.73;;;;;;;;;;5007170;28;20502;-67
2023/07/27 13:52:20;;;;;;;10.27;1.60;;;;;;;;;;5006688;28;20284;-65
2023/07/27 13:54:46;;;;;;;6.97;1.73;;;;;;;;;;5005732;28;20129;-67
2023/07/27 13:57:11;;;;;;;5.30;1.37;;;;;;;;;;5006907;28;20308;-68
2023/07/27 13:59:36;;;;;;;3.70;1.63;;;;;;;;;;5005624;28;20030;-67
2023/07/27 14:02:02;;;;;;;2.67;1.37;;;;;;;;;;4986980;28;20042;-65
2023/07/27 14:04:27;;;;;;;2.05;1.40;;;;;;;;;;5007135;28;20314;-69
2023/07/27 14:06:52;;;;;;;2.20;1.10;;;;;;;;;;5006464;28;20034;-68
2023/07/27 14:09:17;;;;;;;3.60;1.57;;;;;;;;;;5006159;28;20277;-69
2023/07/27 14:11:43;;;;;;;3.63;1.10;;;;;;;;;;5006192;28;20041;-70
2023/07/27 14:14:08;;;;;;;2.22;1.38;;;;;;;;;;5005270;28;20060;-64
2023/07/27 14:16:33;;;;;;;4.63;1.30;;;;;;;;;;4987808;28;20037;-64
2023/07/27 14:18:58;;;;;;;3.53;1.30;;;;;;;;;;5004447;28;20034;-65
2023/07/27 14:21:23;;;;;;;3.25;1.20;;;;;;;;;;5006105;28;20272;-65
2023/07/27 14:23:49;;;;;;;2.97;1.27;;;;;;;;;;5005093;28;20513;-63
2023/07/27 14:26:15;;;;;;;2.30;1.40;;;;;;;;;;5005618;28;20395;-64
2023/07/27 14:28:40;;;;;;;2.85;1.67;;;;;;;;;;5004814;28;20084;-65
2023/07/27 14:31:05;;;;;;;4.82;1.42;;;;;;;;;;5005835;28;20037;-64
2023/07/27 14:33:31;;;;;;;2.80;1.43;;;;;;;;;;5005540;28;20133;-63
2023/07/27 14:35:56;;;;;;;2.58;1.48;;;;;;;;;;4983940;28;20042;-66